Time;durP1;ratioP1;P1;durP2;ratioP2;P2;SDS_P1;SDS_P2;PMS_P1;PMS_P2;Temp;Humidity;BMP_temperature;BMP_pressure;BME280_temperature;BME280_humidity;BME280_pressure;Samples;Min_cycle;Max_cycle;Signal;HPM_P1;HPM_P2
2023/04/24 00:00:47;;;;;;;5.03;2.65;;;;;;;13.33;63.27;99963.13;5097872;28;20102;-64
2023/04/24 00:03:15;;;;;;;5.47;2.50;;;;;;;13.33;63.74;99962.31;5104456;28;20048;-64
2023/04/24 00:05:45;;;;;;;3.95;2.42;;;;;;;13.31;63.18;99959.88;5100919;28;20067;-64
2023/04/24 00:08:13;;;;;;;5.72;3.40;;;;;;;13.30;63.66;99962.81;5104778;28;20051;-63
2023/04/24 00:10:41;;;;;;;7.95;3.65;;;;;;;13.28;63.55;99963.09;5102146;28;20540;-63
2023/04/24 00:13:08;;;;;;;7.53;3.63;;;;;;;13.27;63.69;99966.88;5109190;28;20059;-63
2023/04/24 00:15:36;;;;;;;7.50;3.65;;;;;;;13.25;63.39;99960.91;5102339;28;20062;-63
2023/04/24 00:18:04;;;;;;;5.97;2.90;;;;;;;13.27;63.33;99972.25;5099517;28;20055;-64
2023/04/24 00:20:33;;;;;;;6.75;3.30;;;;;;;13.27;63.34;99968.75;5100264;28;20048;-63
2023/04/24 00:23:02;;;;;;;6.10;3.70;;;;;;;13.14;63.65;99953.81;5106733;28;20332;-64
2023/04/24 00:25:30;;;;;;;7.13;3.72;;;;;;;13.26;63.36;99972.53;5093424;28;20056;-64
2023/04/24 00:27:57;;;;;;;7.05;3.63;;;;;;;13.25;63.61;99979.81;5102111;28;20047;-64
2023/04/24 00:30:25;;;;;;;7.75;3.03;;;;;;;13.24;63.35;99977.38;5103079;28;20156;-64
2023/04/24 00:32:53;;;;;;;9.00;3.80;;;;;;;13.23;63.27;99968.47;5107983;28;20524;-64
2023/04/24 00:35:21;;;;;;;8.55;3.25;;;;;;;13.24;63.17;99961.19;5098768;28;20044;-64
2023/04/24 00:37:49;;;;;;;4.82;3.50;;;;;;;13.22;63.43;99969.53;5103316;28;20044;-64
2023/04/24 00:40:18;;;;;;;7.78;3.28;;;;;;;13.22;63.52;99974.13;5100393;28;20083;-64
2023/04/24 00:42:46;;;;;;;6.78;3.85;;;;;;;13.21;63.13;99975.19;5100517;28;20044;-64
2023/04/24 00:45:14;;;;;;;5.85;3.53;;;;;;;13.18;63.33;99973.81;5102537;28;20083;-64
2023/04/24 00:47:42;;;;;;;8.05;3.70;;;;;;;13.19;63.66;99980.03;5101299;28;20055;-63
2023/04/24 00:50:11;;;;;;;8.13;3.30;;;;;;;13.18;63.53;99983.81;5102254;28;20040;-63
2023/04/24 00:52:40;;;;;;;8.77;3.67;;;;;;;13.16;63.39;99972.44;5093282;28;20048;-64
2023/04/24 00:55:09;;;;;;;5.32;3.30;;;;;;;13.15;63.39;99979.72;5094066;28;20048;-64
2023/04/24 00:57:38;;;;;;;5.32;3.53;;;;;;;13.14;63.29;99980.78;5098889;28;20071;-63
2023/04/24 01:00:11;;;;;;;7.97;3.78;;;;;;;13.14;63.35;99982.66;5101332;28;20115;-64
2023/04/24 01:02:43;;;;;;;7.60;3.58;;;;;;;13.13;63.30;99981.03;5095371;28;20067;-63
2023/04/24 01:05:13;;;;;;;6.35;3.55;;;;;;;13.11;63.11;99980.50;5101365;28;20047;-63
2023/04/24 01:07:43;;;;;;;7.45;3.78;;;;;;;13.09;63.17;99978.03;5099154;28;20054;-64
2023/04/24 01:10:12;;;;;;;6.50;3.53;;;;;;;13.10;63.17;99981.56;5099425;28;20059;-64
2023/04/24 01:12:41;;;;;;;6.40;4.25;;;;;;;13.07;63.27;99966.69;5098834;28;20107;-64
2023/04/24 01:15:10;;;;;;;11.32;4.82;;;;;;;13.05;63.18;99976.94;5104507;28;20048;-62
2023/04/24 01:17:39;;;;;;;9.75;4.50;;;;;;;13.05;63.21;99976.94;5106352;28;20040;-62
2023/04/24 01:20:08;;;;;;;7.72;4.10;;;;;;;12.95;63.41;99960.69;5099970;28;20083;-64
2023/04/24 01:22:37;;;;;;;8.45;4.30;;;;;;;13.03;63.47;99971.00;5100073;28;20169;-64
2023/04/24 01:25:06;;;;;;;6.53;4.53;;;;;;;13.02;63.42;99980.97;5094754;28;20075;-63
2023/04/24 01:27:34;;;;;;;6.43;4.15;;;;;;;13.01;63.88;99984.72;5097927;28;20104;-63
2023/04/24 01:30:02;;;;;;;10.70;5.15;;;;;;;13.01;63.26;99975.84;5094398;28;20055;-63
2023/04/24 01:32:30;;;;;;;8.05;5.07;;;;;;;12.99;63.28;99970.69;5100604;28;20119;-63
2023/04/24 01:34:58;;;;;;;13.30;4.85;;;;;;;12.99;63.37;99975.28;5097533;28;20062;-63
2023/04/24 01:37:26;;;;;;;7.55;4.35;;;;;;;12.99;63.33;99977.97;5101227;28;20123;-64
2023/04/24 01:39:55;;;;;;;10.07;5.13;;;;;;;12.98;63.52;99971.75;5098542;28;20040;-63
2023/04/24 01:42:23;;;;;;;6.97;5.13;;;;;;;12.97;63.64;99985.50;5098273;28;20059;-63
2023/04/24 01:44:51;;;;;;;10.43;5.30;;;;;;;12.96;63.69;99973.09;5101660;28;20104;-63
2023/04/24 01:47:19;;;;;;;9.20;6.07;;;;;;;12.94;63.71;99980.63;5101465;28;20131;-64
2023/04/24 01:49:49;;;;;;;11.68;6.80;;;;;;;12.93;63.25;99977.13;5088030;28;20075;-64
2023/04/24 01:52:17;;;;;;;11.77;6.65;;;;;;;12.92;63.72;99983.59;5093070;28;20705;-64
2023/04/24 01:54:45;;;;;;;8.20;5.40;;;;;;;12.89;63.42;99978.72;5099421;28;20059;-64
2023/04/24 01:57:15;;;;;;;8.77;5.53;;;;;;;12.91;63.18;99981.16;5091145;28;20113;-63
2023/04/24 01:59:43;;;;;;;9.20;5.07;;;;;;;12.89;63.41;99973.31;5095141;28;20039;-63
2023/04/24 02:02:11;;;;;;;10.20;5.75;;;;;;;12.90;63.21;99988.44;5095961;28;20044;-64
2023/04/24 02:04:40;;;;;;;9.20;5.40;;;;;;;12.90;63.47;99987.63;5098059;28;20048;-64
2023/04/24 02:07:07;;;;;;;10.45;5.70;;;;;;;12.89;63.33;99978.72;5087804;28;20224;-64
2023/04/24 02:09:35;;;;;;;11.10;5.63;;;;;;;12.89;63.25;99991.38;5099631;28;20074;-64
2023/04/24 02:12:03;;;;;;;10.07;5.47;;;;;;;12.89;63.67;99988.69;5087473;28;20044;-64
2023/04/24 02:14:32;;;;;;;9.10;5.57;;;;;;;12.88;63.39;99992.44;5103988;28;20052;-64
2023/04/24 02:17:00;;;;;;;8.32;5.25;;;;;;;12.87;63.43;99990.81;5100136;28;20091;-64
2023/04/24 02:19:28;;;;;;;11.13;6.43;;;;;;;12.85;63.54;99987.56;5096966;28;20112;-64
2023/04/24 02:21:55;;;;;;;11.60;6.13;;;;;;;12.85;63.43;99991.09;5103973;28;20040;-64
2023/04/24 02:24:23;;;;;;;9.65;5.57;;;;;;;12.80;63.22;99987.53;5098289;28;20085;-64
2023/04/24 02:26:51;;;;;;;11.55;6.00;;;;;;;12.82;63.60;99994.28;5115893;28;20059;-64
2023/04/24 02:29:19;;;;;;;8.30;5.53;;;;;;;12.81;63.18;99995.38;5097032;28;20390;-64
2023/04/24 02:31:48;;;;;;;9.02;5.45;;;;;;;12.80;63.26;99987.53;5100929;28;20123;-64
2023/04/24 02:34:16;;;;;;;10.68;6.13;;;;;;;12.80;63.56;99987.53;5094643;28;20497;-64
2023/04/24 02:36:43;;;;;;;8.52;5.53;;;;;;;12.79;63.57;99983.22;5104175;28;20079;-64
2023/04/24 02:39:11;;;;;;;11.20;6.47;;;;;;;12.76;63.14;99981.84;5102246;28;20040;-64
2023/04/24 02:41:39;;;;;;;10.75;6.18;;;;;;;12.77;63.23;99985.34;5103779;28;20124;-64
2023/04/24 02:44:07;;;;;;;9.73;5.20;;;;;;;12.75;63.14;99976.72;5102600;28;20111;-64
2023/04/24 02:46:34;;;;;;;12.27;5.20;;;;;;;12.75;63.53;99979.41;5097935;28;20077;-64
2023/04/24 02:49:03;;;;;;;9.75;5.88;;;;;;;12.74;63.39;99970.50;5108282;28;20061;-64
2023/04/24 02:51:31;;;;;;;8.52;5.25;;;;;;;12.74;63.45;99977.78;5099047;28;20047;-64
2023/04/24 02:53:59;;;;;;;9.23;5.75;;;;;;;12.73;63.39;99973.47;5105942;28;20043;-64
2023/04/24 02:56:27;;;;;;;12.43;6.40;;;;;;;12.70;63.48;99972.09;5103610;28;20111;-63
2023/04/24 02:58:54;;;;;;;12.32;5.88;;;;;;;12.71;63.14;99976.41;5101257;28;20035;-63
2023/04/24 03:01:22;;;;;;;10.85;5.47;;;;;;;12.70;63.52;99978.28;5097732;28;20434;-64
2023/04/24 03:03:50;;;;;;;9.98;5.22;;;;;;;12.68;63.11;99966.94;5100438;28;20056;-63
2023/04/24 03:06:20;;;;;;;9.40;5.43;;;;;;;12.67;63.32;99976.09;5103192;28;20044;-63
2023/04/24 03:08:48;;;;;;;12.77;6.50;;;;;;;12.68;63.22;99976.91;5103678;28;20083;-63
2023/04/24 03:11:16;;;;;;;9.98;4.85;;;;;;;12.66;62.99;99974.47;5095808;28;20499;-63
2023/04/24 03:13:44;;;;;;;13.25;6.15;;;;;;;12.65;63.04;99980.13;5098002;28;20083;-63
2023/04/24 03:16:11;;;;;;;12.25;6.05;;;;;;;12.64;63.34;99976.63;5101029;28;20111;-63
2023/04/24 03:18:39;;;;;;;11.55;4.78;;;;;;;12.62;63.08;99972.56;5097665;28;20082;-63
2023/04/24 03:21:07;;;;;;;9.73;5.07;;;;;;;12.63;63.36;99976.88;5106317;28;20048;-63
2023/04/24 03:23:36;;;;;;;7.65;5.03;;;;;;;12.62;63.53;99977.94;5108769;28;20063;-63
2023/04/24 03:26:04;;;;;;;11.43;5.05;;;;;;;12.63;63.32;99979.56;5107356;28;20078;-63
2023/04/24 03:28:32;;;;;;;9.48;5.22;;;;;;;12.62;63.22;99976.06;5103793;28;20143;-63
2023/04/24 03:31:00;;;;;;;12.55;4.63;;;;;;;12.61;63.33;99974.44;5102824;28;20121;-63
2023/04/24 03:33:27;;;;;;;8.80;4.90;;;;;;;12.61;62.95;99981.72;5105532;28;20524;-65
2023/04/24 03:35:55;;;;;;;10.63;5.30;;;;;;;12.61;63.35;99973.63;5102505;28;20054;-63
2023/04/24 03:38:23;;;;;;;9.00;4.75;;;;;;;12.62;63.33;99977.94;5103476;28;20043;-63
2023/04/24 03:40:52;;;;;;;11.32;5.00;;;;;;;12.60;63.36;99988.97;5101690;28;20045;-64
2023/04/24 03:43:20;;;;;;;11.50;5.20;;;;;;;12.60;63.39;99980.09;5102312;28;20103;-63
2023/04/24 03:45:47;;;;;;;8.70;4.82;;;;;;;12.59;63.00;99973.88;5102782;28;20044;-63
2023/04/24 03:48:15;;;;;;;9.02;4.88;;;;;;;12.59;62.91;99971.19;5105937;28;20079;-63
2023/04/24 03:50:43;;;;;;;9.88;5.13;;;;;;;12.57;63.24;99978.72;5100288;28;20075;-63
2023/04/24 03:53:11;;;;;;;9.15;4.85;;;;;;;12.59;63.44;99981.16;5094105;28;20072;-64
2023/04/24 03:55:38;;;;;;;7.22;4.38;;;;;;;12.57;63.32;99977.91;5099663;28;20107;-63
2023/04/24 03:58:08;;;;;;;10.05;5.20;;;;;;;12.55;63.22;99985.44;5104093;28;20098;-63
2023/04/24 04:00:37;;;;;;;8.55;4.45;;;;;;;12.54;62.97;99979.22;5108421;28;20133;-64
2023/04/24 04:03:05;;;;;;;10.32;4.65;;;;;;;12.54;63.03;99981.13;5098961;28;20097;-64
2023/04/24 04:05:33;;;;;;;8.02;3.92;;;;;;;12.54;63.10;99975.72;5103557;28;20112;-63
2023/04/24 04:08:00;;;;;;;6.88;4.00;;;;;;;12.52;63.03;99978.66;5104430;28;20090;-63
2023/04/24 04:10:28;;;;;;;10.63;4.50;;;;;;;12.52;63.12;99980.56;5100753;28;20051;-63
2023/04/24 04:12:56;;;;;;;7.72;4.50;;;;;;;12.51;62.98;99987.00;5102007;28;20080;-64
2023/04/24 04:15:25;;;;;;;8.43;4.40;;;;;;;12.51;62.84;99985.13;5090177;28;20083;-63
2023/04/24 04:17:53;;;;;;;9.02;4.03;;;;;;;12.49;63.04;99978.38;5099973;28;20352;-63
2023/04/24 04:20:20;;;;;;;7.53;3.75;;;;;;;12.49;63.09;99981.06;5095054;28;20051;-64
2023/04/24 04:22:48;;;;;;;8.13;4.03;;;;;;;12.48;62.91;99982.94;5102340;28;20059;-63
2023/04/24 04:25:19;;;;;;;5.63;3.90;;;;;;;12.47;63.02;99980.50;5101525;28;20549;-63
2023/04/24 04:27:47;;;;;;;10.23;4.05;;;;;;;12.45;63.48;99979.94;5097738;28;20063;-62
2023/04/24 04:30:15;;;;;;;7.35;4.53;;;;;;;12.44;63.60;99987.22;5101752;28;20056;-63
2023/04/24 04:32:45;;;;;;;7.47;4.07;;;;;;;12.41;63.47;99990.41;5095720;28;20332;-63
2023/04/24 04:35:12;;;;;;;5.05;3.75;;;;;;;12.42;63.58;99991.22;5097818;28;20036;-63
2023/04/24 04:37:40;;;;;;;7.30;3.92;;;;;;;12.42;63.44;99983.16;5095781;28;20417;-62
2023/04/24 04:40:11;;;;;;;6.45;3.67;;;;;;;12.41;63.61;99987.72;5095406;28;20079;-62
2023/04/24 04:42:40;;;;;;;5.78;3.85;;;;;;;12.39;63.55;99982.59;5092862;28;20049;-63
2023/04/24 04:45:10;;;;;;;5.03;2.97;;;;;;;12.38;63.52;99983.66;5093232;28;20062;-63
2023/04/24 04:47:39;;;;;;;5.65;3.63;;;;;;;12.39;63.31;99990.69;5092733;28;20060;-63
2023/04/24 04:50:10;;;;;;;5.72;3.05;;;;;;;12.38;63.59;99999.00;5086822;28;20053;-63
2023/04/24 04:52:38;;;;;;;5.60;3.25;;;;;;;12.37;63.29;99992.00;5102301;28;20044;-63
2023/04/24 04:55:07;;;;;;;5.88;3.85;;;;;;;12.35;63.30;99997.63;5095418;28;20048;-63
2023/04/24 04:57:35;;;;;;;7.72;3.38;;;;;;;12.36;63.75;99990.38;5095072;28;20052;-66
2023/04/24 05:00:04;;;;;;;7.85;2.97;;;;;;;12.35;63.61;99996.81;5096342;28;20107;-62
2023/04/24 05:02:32;;;;;;;7.10;3.55;;;;;;;12.34;63.80;100005.97;5099289;28;20044;-62
2023/04/24 05:05:00;;;;;;;4.75;3.20;;;;;;;12.33;63.66;100007.03;5090117;28;20035;-63
2023/04/24 05:07:29;;;;;;;4.88;2.92;;;;;;;12.32;63.60;100005.41;4747431;28;10000161;-64
2023/04/24 05:09:57;;;;;;;4.80;2.85;;;;;;;12.32;63.53;100005.41;5096143;28;20091;-64
2023/04/24 05:12:24;;;;;;;4.45;2.70;;;;;;;12.30;63.45;100004.84;5087058;28;20055;-63
2023/04/24 05:14:52;;;;;;;4.45;2.75;;;;;;;12.28;63.80;99999.72;5086866;28;20137;-63
2023/04/24 05:17:20;;;;;;;3.40;2.50;;;;;;;12.26;63.93;100019.91;5104936;28;20130;-64
2023/04/24 05:19:48;;;;;;;4.32;2.70;;;;;;;12.25;63.81;100021.78;5096611;28;20044;-64
2023/04/24 05:22:17;;;;;;;3.72;2.25;;;;;;;12.24;64.27;100025.53;5089648;28;20344;-65
2023/04/24 05:24:46;;;;;;;5.18;2.10;;;;;;;12.22;63.99;100034.94;5092598;28;20112;-63
2023/04/24 05:27:14;;;;;;;4.03;2.03;;;;;;;12.20;64.28;100031.69;5095260;28;20493;-63
2023/04/24 05:29:43;;;;;;;2.75;2.10;;;;;;;12.19;64.28;100036.25;5096817;28;20374;-64
2023/04/24 05:32:11;;;;;;;3.45;2.00;;;;;;;12.20;64.26;100042.47;5091789;28;20107;-64
2023/04/24 05:34:39;;;;;;;3.50;1.80;;;;;;;12.19;64.21;100046.22;5093268;28;20123;-65
2023/04/24 05:37:09;;;;;;;3.75;2.22;;;;;;;12.17;64.50;100051.88;5096755;28;20044;-64
2023/04/24 05:39:37;;;;;;;3.03;1.80;;;;;;;12.15;64.21;100051.31;5099558;28;20227;-66
2023/04/24 05:42:06;;;;;;;4.63;1.40;;;;;;;12.15;64.21;100050.50;5093403;28;20139;-65
2023/04/24 05:44:34;;;;;;;3.38;1.30;;;;;;;12.13;64.55;100061.53;5098293;28;20146;-66
2023/04/24 05:47:02;;;;;;;3.25;1.55;;;;;;;12.13;64.67;100058.84;5090925;28;20110;-66
2023/04/24 05:49:30;;;;;;;2.25;1.20;;;;;;;12.12;64.68;100057.22;5098565;28;20186;-66
2023/04/24 05:51:58;;;;;;;2.00;1.10;;;;;;;12.11;64.58;100052.91;5099294;28;20039;-65
2023/04/24 05:54:25;;;;;;;3.35;1.25;;;;;;;12.10;64.24;100051.28;5092674;28;20068;-65
2023/04/24 05:56:54;;;;;;;2.58;1.40;;;;;;;12.10;64.27;100061.22;5095938;28;20040;-65
2023/04/24 05:59:23;;;;;;;2.22;1.20;;;;;;;12.11;64.50;100063.66;5096271;28;20140;-62
2023/04/24 06:01:51;;;;;;;3.40;1.30;;;;;;;12.10;64.26;100059.34;5089245;28;20048;-64
2023/04/24 06:04:19;;;;;;;2.40;1.38;;;;;;;12.00;64.86;100065.44;5090644;28;20055;-63
2023/04/24 06:06:50;;;;;;;2.20;1.50;;;;;;;12.01;64.86;100080.53;5092128;28;20159;-64
2023/04/24 06:09:18;;;;;;;2.40;1.20;;;;;;;12.00;65.08;100078.06;5096188;28;20262;-64
2023/04/24 06:11:46;;;;;;;3.22;1.10;;;;;;;12.02;64.68;100075.94;5091384;28;20075;-65
2023/04/24 06:14:14;;;;;;;5.03;1.15;;;;;;;12.01;64.68;100096.69;5094733;28;20083;-65
2023/04/24 06:16:43;;;;;;;3.03;1.35;;;;;;;11.99;64.89;100098.81;5087665;28;20051;-65
2023/04/24 06:19:11;;;;;;;2.10;1.38;;;;;;;11.97;64.82;100095.53;5101279;28;20070;-65
2023/04/24 06:21:39;;;;;;;2.10;1.40;;;;;;;11.95;65.06;100099.56;5089696;28;20119;-66
2023/04/24 06:24:07;;;;;;;3.15;1.50;;;;;;;11.95;64.78;100121.09;5100841;28;20135;-65
2023/04/24 06:26:34;;;;;;;3.72;1.70;;;;;;;11.93;64.85;100120.53;5094679;28;20048;-65
2023/04/24 06:29:02;;;;;;;3.90;1.52;;;;;;;11.90;65.18;100121.84;5087337;28;20048;-65
2023/04/24 06:31:30;;;;;;;2.92;1.60;;;;;;;11.88;65.37;100128.53;5088676;28;20055;-64
2023/04/24 06:33:59;;;;;;;4.80;1.88;;;;;;;11.86;65.19;100126.09;5084651;28;20094;-65
2023/04/24 06:36:27;;;;;;;3.10;1.75;;;;;;;11.90;64.96;100137.19;5095885;28;20515;-65
2023/04/24 06:38:55;;;;;;;4.65;1.58;;;;;;;11.89;65.16;100149.81;5092459;28;20111;-65
2023/04/24 06:41:23;;;;;;;3.65;1.90;;;;;;;11.88;65.46;100155.47;5093382;28;20052;-66
2023/04/24 06:43:50;;;;;;;4.00;2.40;;;;;;;11.84;65.43;100154.31;5096958;28;20063;-66
2023/04/24 06:46:18;;;;;;;4.70;2.50;;;;;;;11.82;65.36;100161.84;5089317;28;20115;-66
2023/04/24 06:48:46;;;;;;;5.35;2.40;;;;;;;11.81;65.58;100168.28;5092032;28;20060;-67
2023/04/24 06:51:15;;;;;;;4.25;2.33;;;;;;;11.81;65.72;100185.25;5088541;28;20045;-66
2023/04/24 06:53:43;;;;;;;3.92;2.38;;;;;;;11.78;65.72;100185.75;5087657;28;20060;-65
2023/04/24 06:56:11;;;;;;;6.35;2.60;;;;;;;11.83;65.56;100193.06;5097186;28;20116;-66
2023/04/24 06:58:38;;;;;;;6.90;3.28;;;;;;;11.77;66.03;100192.19;5099258;28;20429;-65
2023/04/24 07:01:06;;;;;;;6.72;3.67;;;;;;;11.75;65.98;100223.88;5096220;28;20095;-67
2023/04/24 07:03:35;;;;;;;7.55;3.55;;;;;;;11.72;65.86;100217.13;5100391;28;20054;-71
2023/04/24 07:06:04;;;;;;;6.55;4.45;;;;;;;11.70;66.22;100234.56;5094439;28;20064;-64
2023/04/24 07:08:33;;;;;;;6.50;4.57;;;;;;;11.65;66.07;100229.09;5098697;28;20131;-65
2023/04/24 07:11:01;;;;;;;9.27;4.20;;;;;;;11.62;66.28;100246.56;5096914;28;20371;-66
2023/04/24 07:13:29;;;;;;;13.15;5.32;;;;;;;11.53;66.51;100233.75;5097224;28;20139;-67
2023/04/24 07:15:57;;;;;;;9.82;4.65;;;;;;;11.59;66.29;100268.56;5097417;28;20083;-66
2023/04/24 07:18:25;;;;;;;7.40;4.60;;;;;;;11.57;66.70;100264.50;5094339;28;20055;-67
2023/04/24 07:20:53;;;;;;;9.48;4.53;;;;;;;11.55;66.38;100266.59;5099210;28;20069;-67
2023/04/24 07:23:21;;;;;;;11.98;5.40;;;;;;;11.54;66.83;100276.56;5095726;28;20052;-67
2023/04/24 07:25:50;;;;;;;8.40;5.05;;;;;;;11.53;66.64;100280.31;5099911;28;20122;-68
2023/04/24 07:28:18;;;;;;;9.52;5.03;;;;;;;11.54;66.84;100286.50;5098228;28;20044;-66
2023/04/24 07:30:46;;;;;;;9.68;5.45;;;;;;;11.57;66.71;100300.28;4747703;28;10000168;-65
2023/04/24 07:33:13;;;;;;;8.10;5.00;;;;;;;11.60;66.34;100304.38;5095555;28;20040;-66
2023/04/24 07:35:41;;;;;;;6.93;4.22;;;;;;;11.60;66.51;100321.34;5102554;28;20048;-63
2023/04/24 07:38:09;;;;;;;7.03;4.50;;;;;;;11.57;66.47;100315.63;5098765;28;20044;-63
2023/04/24 07:40:37;;;;;;;10.10;3.83;;;;;;;11.78;66.07;100324.91;5102343;28;20121;-65
2023/04/24 07:43:06;;;;;;;7.93;3.75;;;;;;;11.58;66.20;100325.34;5098833;28;20104;-62
2023/04/24 07:45:36;;;;;;;11.40;4.47;;;;;;;11.48;66.35;100342.09;5100113;28;20107;-63
2023/04/24 07:48:05;;;;;;;9.40;4.00;;;;;;;11.40;66.45;100348.69;5099971;28;20044;-62
2023/04/24 07:50:33;;;;;;;8.63;3.45;;;;;;;11.79;66.12;100359.69;5096159;28;20052;-62
2023/04/24 07:53:00;;;;;;;10.45;3.85;;;;;;;11.53;65.71;100376.38;5099211;28;20075;-62
2023/04/24 07:55:28;;;;;;;8.75;3.97;;;;;;;11.39;66.02;100381.22;5098948;28;20048;-66
2023/04/24 07:57:56;;;;;;;11.07;4.43;;;;;;;11.31;66.73;100379.72;5100479;28;20639;-65
2023/04/24 08:00:25;;;;;;;10.93;4.32;;;;;;;11.30;66.63;100393.41;5102516;28;20040;-61
2023/04/24 08:02:53;;;;;;;12.80;4.05;;;;;;;11.27;67.24;100397.38;5098728;28;20123;-59
2023/04/24 08:05:21;;;;;;;14.18;4.65;;;;;;;11.27;67.18;100405.44;5099791;28;20097;-61
2023/04/24 08:07:50;;;;;;;15.05;5.57;;;;;;;11.28;67.07;100408.97;5101857;28;20330;-59
2023/04/24 08:10:18;;;;;;;13.98;4.40;;;;;;;11.29;67.29;100411.41;5094054;28;20048;-65
2023/04/24 08:12:45;;;;;;;12.68;4.82;;;;;;;11.29;67.13;100416.78;5096158;28;20040;-63
2023/04/24 08:15:13;;;;;;;11.88;3.63;;;;;;;11.32;67.20;100419.00;5100632;28;20050;-63
2023/04/24 08:17:42;;;;;;;16.48;5.18;;;;;;;11.34;67.06;100422.28;5100043;28;20052;-63
2023/04/24 08:20:13;;;;;;;10.43;3.88;;;;;;;11.35;67.36;100426.59;5095172;28;20454;-64
2023/04/24 08:22:41;;;;;;;10.82;4.15;;;;;;;11.32;67.18;100434.34;5099970;28;20116;-64
2023/04/24 08:25:10;;;;;;;15.02;4.70;;;;;;;11.37;67.19;100445.19;5099785;28;20119;-63
2023/04/24 08:27:38;;;;;;;15.45;4.90;;;;;;;11.37;67.22;100450.59;5100447;28;20134;-65
2023/04/24 08:30:07;;;;;;;9.38;3.80;;;;;;;11.36;67.00;100459.72;5097591;28;20485;-64
2023/04/24 08:32:35;;;;;;;14.80;4.30;;;;;;;11.36;67.18;100459.72;5099292;28;20111;-64
2023/04/24 08:35:05;;;;;;;10.10;4.00;;;;;;;11.36;66.82;100470.47;5095572;28;20396;-64
2023/04/24 08:37:33;;;;;;;12.27;4.43;;;;;;;11.36;66.91;100465.09;5098496;28;20596;-64
2023/04/24 08:40:02;;;;;;;11.15;4.10;;;;;;;11.36;66.96;100457.03;5097663;28;20585;-64
2023/04/24 08:42:33;;;;;;;13.35;3.83;;;;;;;11.35;66.76;100469.66;5099602;28;20075;-64
2023/04/24 08:45:02;;;;;;;10.40;3.20;;;;;;;11.35;66.84;100479.59;5097301;28;20044;-65
2023/04/24 08:47:30;;;;;;;15.48;5.35;;;;;;;11.38;66.90;100485.31;5098356;28;20048;-65
2023/04/24 08:50:02;;;;;;;14.00;3.97;;;;;;;11.48;66.51;100482.03;5097869;28;20135;-65
2023/04/24 08:52:32;;;;;;;16.95;4.55;;;;;;;11.66;65.83;100489.97;5095509;28;20052;-62
2023/04/24 08:55:01;;;;;;;13.77;5.05;;;;;;;11.83;65.41;100491.94;5098407;28;20031;-63
2023/04/24 08:57:29;;;;;;;14.45;3.55;;;;;;;11.92;64.87;100490.50;5095820;28;20083;-65
2023/04/24 08:59:58;;;;;;;11.75;3.03;;;;;;;12.03;64.61;100501.25;5097422;28;20127;-62
2023/04/24 09:02:27;;;;;;;16.42;4.35;;;;;;;12.07;64.28;100498.88;5097361;28;20116;-62
2023/04/24 09:04:57;;;;;;;18.23;3.95;;;;;;;12.11;63.79;100510.00;5098780;28;20048;-62
2023/04/24 09:07:25;;;;;;;14.20;4.10;;;;;;;12.14;63.95;100518.38;5099365;28;20043;-62
2023/04/24 09:09:55;;;;;;;14.23;3.97;;;;;;;12.35;63.37;100531.19;5097476;28;20066;-63
2023/04/24 09:12:23;;;;;;;10.60;2.92;;;;;;;12.48;62.65;100532.75;5096061;28;20082;-63
2023/04/24 09:14:52;;;;;;;7.82;2.35;;;;;;;12.69;62.05;100537.47;5097435;28;20040;-62
2023/04/24 09:17:19;;;;;;;10.52;2.85;;;;;;;12.87;60.89;100531.03;5096941;28;20086;-62
2023/04/24 09:19:47;;;;;;;9.57;2.80;;;;;;;12.91;60.98;100532.16;5097691;28;20072;-63
2023/04/24 09:22:16;;;;;;;7.00;1.95;;;;;;;12.99;60.33;100545.25;5095544;28;20048;-63
2023/04/24 09:24:43;;;;;;;12.55;4.10;;;;;;;12.94;60.25;100541.66;5099038;28;20062;-63
2023/04/24 09:27:14;;;;;;;11.40;4.28;;;;;;;12.87;60.50;100552.59;5099014;28;20044;-63
2023/04/24 09:29:54;;;;;;;10.10;2.92;;;;;;;12.74;61.17;100558.31;5098355;28;20091;-63
2023/04/24 09:32:25;;;;;;;11.30;2.55;;;;;;;12.61;61.48;100569.38;5097885;28;20048;-63
2023/04/24 09:35:07;;;;;;;10.38;2.30;;;;;;;12.48;61.54;100569.69;5093689;28;20053;-62
2023/04/24 09:37:36;;;;;;;9.75;3.25;;;;;;;12.34;61.93;100571.84;5098877;28;20054;-62
2023/04/24 09:40:16;;;;;;;14.60;3.63;;;;;;;12.17;62.56;100582.56;5097817;28;20107;-62
2023/04/24 09:42:53;;;;;;;9.65;2.63;;;;;;;12.09;62.88;100579.44;5096265;28;20113;-62
2023/04/24 09:45:21;;;;;;;11.02;3.28;;;;;;;12.02;63.11;100585.78;5096291;28;20036;-63
2023/04/24 09:47:53;;;;;;;10.88;3.28;;;;;;;11.96;63.21;100596.69;5097211;28;20521;-62
2023/04/24 09:50:21;;;;;;;7.25;2.53;;;;;;;11.89;63.79;100590.63;5096862;28;20132;-62
2023/04/24 09:52:58;;;;;;;11.20;2.50;;;;;;;11.92;63.81;100611.69;5098516;28;20052;-62
2023/04/24 09:55:26;;;;;;;11.82;3.40;;;;;;;11.85;63.73;100605.59;5096134;28;20071;-64
2023/04/24 09:57:59;;;;;;;15.68;3.67;;;;;;;11.81;64.09;100612.53;5097967;28;20043;-65
2023/04/24 10:00:29;;;;;;;16.02;3.40;;;;;;;11.72;63.58;100622.78;5092964;28;20044;-61
2023/04/24 10:02:58;;;;;;;9.05;2.67;;;;;;;11.68;64.19;100627.00;5096104;28;20446;-62
2023/04/24 10:05:28;;;;;;;12.00;3.35;;;;;;;11.66;63.92;100621.84;5099364;28;20050;-61
2023/04/24 10:07:58;;;;;;;9.10;2.40;;;;;;;11.61;64.28;100632.50;5096929;28;20071;-61
2023/04/24 10:10:26;;;;;;;8.85;2.28;;;;;;;11.57;63.54;100628.66;5094353;28;20046;-61
2023/04/24 10:12:55;;;;;;;8.00;2.63;;;;;;;11.51;63.01;100628.75;5093526;28;20044;-62
2023/04/24 10:15:23;;;;;;;11.55;2.33;;;;;;;11.48;63.29;100632.72;5086739;28;20086;-66
2023/04/24 10:17:53;;;;;;;9.88;3.10;;;;;;;11.51;62.84;100634.97;5092596;28;20044;-63
2023/04/24 10:20:22;;;;;;;6.82;2.22;;;;;;;11.47;62.96;100633.78;5090982;28;20139;-61
2023/04/24 10:22:51;;;;;;;7.50;2.80;;;;;;;11.53;62.52;100635.53;5090076;28;20079;-60
2023/04/24 10:25:21;;;;;;;9.07;2.80;;;;;;;11.67;62.25;100641.53;5091719;28;20071;-60
2023/04/24 10:27:51;;;;;;;9.15;2.60;;;;;;;11.80;61.53;100638.63;5097195;28;20059;-63
2023/04/24 10:30:21;;;;;;;11.52;2.80;;;;;;;12.01;61.29;100650.66;5087053;28;20154;-63
2023/04/24 10:32:48;;;;;;;7.95;1.80;;;;;;;12.16;60.56;100642.88;5097397;28;20078;-63
2023/04/24 10:35:22;;;;;;;11.35;2.55;;;;;;;12.36;59.69;100642.50;5094432;28;20090;-63
2023/04/24 10:37:51;;;;;;;6.63;2.10;;;;;;;12.45;58.78;100634.84;5096071;28;20040;-63
2023/04/24 10:40:26;;;;;;;9.07;1.83;;;;;;;12.70;58.20;100640.75;5091522;28;20056;-63
2023/04/24 10:42:54;;;;;;;7.35;2.50;;;;;;;12.69;57.80;100649.88;5092832;28;20301;-63
2023/04/24 10:45:27;;;;;;;11.13;2.15;;;;;;;12.64;57.82;100655.19;5087509;28;20323;-63
2023/04/24 10:47:58;;;;;;;6.03;1.65;;;;;;;12.45;58.05;100662.63;5099128;28;20064;-64
2023/04/24 10:50:30;;;;;;;9.20;2.15;;;;;;;12.36;58.63;100672.13;4744509;28;9999689;-63
2023/04/24 10:53:07;;;;;;;9.35;3.10;;;;;;;12.25;59.15;100667.59;5085744;28;20050;-63
2023/04/24 10:55:41;;;;;;;;;;;;;;;12.16;59.35;100679.78;5094486;28;20058;-63
2023/04/24 10:58:09;;;;;;;7.30;1.90;;;;;;;12.12;59.70;100684.03;5094305;28;19966;-64
2023/04/24 11:00:40;;;;;;;4.18;1.55;;;;;;;12.07;59.92;100675.84;5092378;28;20142;-63
2023/04/24 11:03:24;;;;;;;5.88;2.13;;;;;;;12.03;60.35;100686.28;5103604;28;20056;-63
2023/04/24 11:05:56;;;;;;;5.15;1.67;;;;;;;11.99;60.08;100695.88;5094711;28;21105;-63
2023/04/24 11:08:43;;;;;;;7.40;1.67;;;;;;;11.95;60.36;100690.13;5101457;28;20074;-63
2023/04/24 11:11:13;;;;;;;4.60;1.45;;;;;;;11.91;60.30;100699.75;5087920;28;20351;-63
2023/04/24 11:14:04;;;;;;;5.55;1.60;;;;;;;11.88;59.89;100694.81;5097119;28;20077;-63
2023/04/24 11:16:35;;;;;;;5.38;1.63;;;;;;;11.88;60.17;100696.69;5097295;28;20054;-63
2023/04/24 11:19:05;;;;;;;4.43;1.48;;;;;;;11.85;60.55;100697.16;5101900;28;20071;-64
2023/04/24 11:21:41;;;;;;;5.35;1.50;;;;;;;11.84;60.42;100701.72;5094722;28;20113;-63
2023/04/24 11:24:25;;;;;;;8.02;1.92;;;;;;;11.81;60.20;100704.06;5101973;28;20068;-64
2023/04/24 11:26:54;;;;;;;3.78;1.30;;;;;;;11.77;60.04;100713.63;5092331;28;20062;-63
2023/04/24 11:29:22;;;;;;;2.38;1.33;;;;;;;11.78;60.30;100710.72;5092097;28;20070;-64
2023/04/24 11:31:53;;;;;;;7.47;2.47;;;;;;;11.76;60.37;100718.19;5095867;28;20048;-64
2023/04/24 11:34:21;;;;;;;6.20;1.92;;;;;;;11.74;59.99;100737.28;5103487;28;20073;-63